Aérodrome :
LOGIN :

S'inscrire | Disclaimer

   EN    FR    IT 

 










Légende :    VFR   VFR Marginal   IFR   IFR Intensif   IFR Très Intensif
Visi : 
Plafond : 
>= 8 km
>= 3000ft
5 à 8 km
1000 à 3000 ft
1500m à 5 km
500 à 1000 ft
800 à 1500m
200 à 500 ft
< 800m
< 200 ft
Symboles :   Orages  Brouillard  Fortes neiges  Fortes précipitations  Vent > 20 kt
SIGMETs :   Divers  Orages  Givrage  Turbulence  Onde Orograph.  Cendres Volcan.







- Altitude de l'aérodrome : 75 ft
- Code IATA : YEO


EGDY - RNAS Yeovilton

DERNIER METAR :
  • 230650Z 26010KT 9999 FEW015 08/04 Q0994 BLU NOSIG

METARs EXPIRÉS :
  • 230550Z 27015KT 9999 FEW015 09/07 Q0992 BLU
  • 230450Z 26013KT 9999 -SHRA BKN018CB SCT070 12/10 Q0989 WHT

TAF TAF EGDY
Valide du 23 à 07h jusqu'au 23 à 16h UTC


230540Z 2307/2316 23015G25KT 9999 SCT035
PROB40
TEMPO 2312/2316 -SHRA SCT020TCU
Pas de NOTAMs connus pour ce terrain.
1 SIGMET publié pour la FIR London (EGTT) :
 
Turbulence forte
EGTT SIGMET 02 VALID 230600/231000 EGRR
EGTT LONDON FIR SEV TURB FCST E OF LINE N5000 W00015 - N5500 E00258 SFC/FL060 MOV E 20KT WKN=



MET'MAP, la Météo Aéronautique d'un coup d'oeil ! - Copyright ORBIFLY Décembre 2007 - Disclaimer

ORBIFLY MET'MAP TEAM :

Programmation & Développement : Alexandra Zaïnal
Conception & Développement : Baudouin d'Aumeries
Co-Programmation & Développement : Marc-Olivier Méhu
Soutien technique & logistique : Manuel Goepfert

Contact : metmap@orbifly.com




SOURCES & CREDITS :

   NOAA